Time;durP1;ratioP1;P1;durP2;ratioP2;P2;SDS_P1;SDS_P2;PMS_P1;PMS_P2;Temp;Humidity;BMP_temperature;BMP_pressure;BME280_temperature;BME280_humidity;BME280_pressure;Samples;Min_cycle;Max_cycle;Signal;HPM_P1;HPM_P2
2022/05/28 00:00:31;;;;;;;3.53;1.02;;;;;;;20.30;29.90;101746.28;5090131;28;20461;-78
2022/05/28 00:02:58;;;;;;;3.22;1.27;;;;;;;20.29;30.15;101739.91;5088305;28;20083;-78
2022/05/28 00:05:25;;;;;;;6.90;1.30;;;;;;;20.27;30.39;101739.16;5090390;28;20143;-77
2022/05/28 00:07:52;;;;;;;2.65;1.40;;;;;;;20.25;30.20;101734.81;5089319;28;20152;-78
2022/05/28 00:10:19;;;;;;;2.67;1.10;;;;;;;20.25;29.90;101732.06;5072672;28;20079;-78
2022/05/28 00:12:47;;;;;;;3.30;1.27;;;;;;;20.23;30.14;101723.94;5088661;28;20134;-78
2022/05/28 00:15:13;;;;;;;4.47;1.50;;;;;;;20.21;30.52;101725.09;5070298;28;20083;-78
2022/05/28 00:17:40;;;;;;;3.45;1.48;;;;;;;20.20;30.10;101715.06;5086757;28;20052;-78
2022/05/28 00:20:08;;;;;;;3.22;1.10;;;;;;;20.20;30.24;101709.53;5087993;28;20052;-77
2022/05/28 00:22:39;;;;;;;3.95;1.17;;;;;;;20.18;30.12;101714.38;5069971;28;20092;-78
2022/05/28 00:25:10;;;;;;;5.00;1.27;;;;;;;20.17;30.52;101721.75;5092609;28;20076;-77
2022/05/28 00:27:37;;;;;;;5.00;1.42;;;;;;;20.12;30.43;101716.66;5073143;28;20110;-77
2022/05/28 00:30:05;;;;;;;4.95;1.85;;;;;;;20.12;30.25;101722.16;5087359;28;20044;-77
2022/05/28 00:32:33;;;;;;;3.35;1.33;;;;;;;20.09;30.73;101718.84;5067377;28;20148;-77
2022/05/28 00:35:00;;;;;;;3.90;1.27;;;;;;;20.07;30.63;101712.59;5086989;28;20044;-78
2022/05/28 00:37:26;;;;;;;3.90;1.48;;;;;;;20.06;30.71;101720.00;5091051;28;20491;-78
2022/05/28 00:39:53;;;;;;;5.47;1.50;;;;;;;20.05;30.84;101718.25;5093145;28;20127;-78
2022/05/28 00:42:21;;;;;;;4.38;1.20;;;;;;;20.05;30.52;101712.75;5090575;28;20036;-77
2022/05/28 00:44:48;;;;;;;4.00;1.55;;;;;;;20.04;30.64;101716.50;5073266;28;20132;-78
2022/05/28 00:47:16;;;;;;;4.18;1.23;;;;;;;20.05;30.74;101709.09;5076510;28;20466;-77
2022/05/28 00:49:43;;;;;;;3.03;1.10;;;;;;;20.02;30.94;101701.97;5087927;28;20291;-77
2022/05/28 00:52:10;;;;;;;3.50;1.20;;;;;;;20.03;30.40;101702.84;5089215;28;20464;-78
2022/05/28 00:54:42;;;;;;;3.25;1.15;;;;;;;20.03;30.74;101703.72;5073351;28;20087;-77
2022/05/28 00:57:10;;;;;;;3.95;1.35;;;;;;;20.00;30.64;101705.91;5072968;28;20127;-78
2022/05/28 00:59:37;;;;;;;2.83;1.17;;;;;;;20.00;30.60;101703.16;5088112;28;20143;-78
2022/05/28 01:02:11;;;;;;;3.42;1.60;;;;;;;20.02;30.50;101692.84;5089281;28;20127;-77
2022/05/28 01:05:05;;;;;;;4.40;1.20;;;;;;;20.01;30.73;101688.38;5070676;28;20068;-78
2022/05/28 01:07:49;;;;;;;5.05;1.60;;;;;;;19.99;31.41;101676.59;5094377;28;20075;-78
2022/05/28 01:10:21;;;;;;;3.75;1.20;;;;;;;19.94;30.75;101673.38;5091190;28;20048;-78
2022/05/28 01:13:01;;;;;;;3.33;1.10;;;;;;;19.95;30.80;101678.75;5072387;28;20044;-77
2022/05/28 01:15:40;;;;;;;3.25;1.25;;;;;;;19.95;30.91;101684.28;5086698;28;20525;-78
2022/05/28 01:18:13;;;;;;;5.53;1.50;;;;;;;19.92;31.08;101675.44;5085069;28;20082;-78
2022/05/28 01:20:50;;;;;;;;;;;;;;;19.64;30.95;101677.97;5075288;28;20477;-76
2022/05/28 01:23:22;;;;;;;3.50;1.20;;;;;;;19.88;31.37;101679.47;5083322;28;20006;-76
2022/05/28 01:25:52;;;;;;;4.38;1.70;;;;;;;19.84;30.82;101678.91;5094414;28;20035;-76
2022/05/28 01:28:22;;;;;;;3.22;1.10;;;;;;;19.88;31.21;101673.97;5098259;28;20152;-76
2022/05/28 01:30:51;;;;;;;3.90;1.30;;;;;;;19.85;30.91;101675.13;5091053;28;20040;-76
2022/05/28 01:33:19;;;;;;;3.58;1.40;;;;;;;19.86;31.27;101676.00;5085392;28;20123;-76
2022/05/28 01:35:46;;;;;;;3.35;1.33;;;;;;;19.85;31.19;101677.03;5071037;28;20072;-76
2022/05/28 01:38:15;;;;;;;5.28;1.30;;;;;;;19.86;30.93;101668.59;5092965;28;20039;-76
2022/05/28 01:40:43;;;;;;;3.42;1.30;;;;;;;19.84;30.65;101675.28;5097807;28;20078;-76
2022/05/28 01:43:12;;;;;;;4.40;1.40;;;;;;;19.85;30.88;101672.34;5089991;28;20087;-76
2022/05/28 01:45:44;;;;;;;4.85;1.50;;;;;;;19.83;30.88;101671.66;5086788;28;20043;-76
2022/05/28 01:48:12;;;;;;;2.30;1.20;;;;;;;19.79;31.44;101664.66;5062470;28;20148;-76
2022/05/28 01:50:43;;;;;;;3.90;1.50;;;;;;;19.83;31.27;101668.03;5095632;28;20082;-76
2022/05/28 01:54:06;;;;;;;4.22;1.38;;;;;;;19.81;31.34;101662.66;5106637;28;20085;-76
2022/05/28 01:56:01;;;;;;;3.30;1.40;;;;;;;19.78;31.22;101668.44;5097607;28;20130;-76
2022/05/28 01:58:27;;;;;;;3.58;1.73;;;;;;;19.77;31.26;101663.94;5093713;28;20071;-76
2022/05/28 02:00:54;;;;;;;4.03;1.20;;;;;;;19.77;31.19;101667.56;5090732;28;20569;-76
2022/05/28 02:03:21;;;;;;;5.93;1.52;;;;;;;19.77;31.54;101661.19;5093173;28;20044;-76
2022/05/28 02:05:48;;;;;;;2.78;1.45;;;;;;;19.75;31.64;101658.59;5089563;28;20614;-76
2022/05/28 02:08:14;;;;;;;4.60;1.42;;;;;;;19.74;31.36;101662.34;5096760;28;20074;-76
2022/05/28 02:10:49;;;;;;;5.35;1.70;;;;;;;19.79;31.92;101667.44;5105976;28;20072;-76
2022/05/28 02:13:24;;;;;;;4.45;1.55;;;;;;;19.77;31.72;101659.28;5093524;28;20075;-76
2022/05/28 02:16:14;;;;;;;5.15;1.90;;;;;;;19.74;31.56;101662.34;5077716;28;20093;-76
2022/05/28 02:18:44;;;;;;;4.93;1.70;;;;;;;19.72;31.73;101656.09;5088635;28;20135;-76
2022/05/28 02:21:47;;;;;;;5.40;1.42;;;;;;;19.72;31.68;101658.00;5105505;28;20082;-76
2022/05/28 02:24:23;;;;;;;3.28;1.23;;;;;;;19.72;31.63;101660.75;5067637;28;20085;-76
2022/05/28 02:26:58;;;;;;;4.43;1.92;;;;;;;19.73;31.94;101660.59;5077775;28;20098;-76
2022/05/28 02:29:25;;;;;;;4.55;1.80;;;;;;;19.70;32.10;101655.38;5073800;28;20573;-76
2022/05/28 02:31:52;;;;;;;3.80;1.50;;;;;;;19.70;31.78;101657.25;5097201;28;20067;-75
2022/05/28 02:34:19;;;;;;;3.95;1.50;;;;;;;19.70;32.25;101660.88;5072985;28;20139;-78
2022/05/28 02:36:45;;;;;;;4.18;1.63;;;;;;;19.69;32.00;101652.75;5095624;28;20109;-76
2022/05/28 02:39:12;;;;;;;5.05;1.90;;;;;;;19.69;31.87;101655.50;5086402;28;20131;-76
2022/05/28 02:41:39;;;;;;;5.38;1.80;;;;;;;19.69;31.84;101652.75;5065186;28;20106;-76
2022/05/28 02:44:05;;;;;;;4.03;1.60;;;;;;;19.68;31.67;101649.13;5075556;28;20131;-77
2022/05/28 02:46:32;;;;;;;5.45;1.80;;;;;;;19.68;32.20;101662.06;5087546;28;20128;-76
2022/05/28 02:48:59;;;;;;;3.63;1.42;;;;;;;19.67;32.11;101655.69;5094679;28;20048;-76
2022/05/28 02:51:25;;;;;;;4.90;1.67;;;;;;;19.67;32.11;101652.03;5106675;28;20130;-76
2022/05/28 02:53:54;;;;;;;6.28;1.70;;;;;;;19.67;31.85;101655.69;5103465;28;20043;-76
2022/05/28 02:56:22;;;;;;;5.97;1.90;;;;;;;19.65;31.88;101654.94;5090825;28;20513;-76
2022/05/28 02:58:49;;;;;;;4.97;1.83;;;;;;;19.62;32.12;101646.06;5090167;28;20135;-76
2022/05/28 03:01:25;;;;;;;4.78;1.63;;;;;;;19.64;32.66;101652.31;5103941;28;20048;-76
2022/05/28 03:03:52;;;;;;;4.65;1.67;;;;;;;19.58;32.23;101653.78;5093367;28;20071;-76
2022/05/28 03:06:19;;;;;;;4.80;1.77;;;;;;;19.57;32.52;101657.53;5104626;28;20048;-77
2022/05/28 03:08:46;;;;;;;7.80;2.88;;;;;;;19.55;32.31;101661.44;5093134;28;20044;-77
2022/05/28 03:11:13;;;;;;;4.13;1.67;;;;;;;19.54;32.19;101656.94;5103535;28;20086;-76
2022/05/28 03:13:41;;;;;;;6.07;2.20;;;;;;;19.52;32.54;101642.44;5076445;28;20079;-76
2022/05/28 03:16:08;;;;;;;4.35;2.20;;;;;;;19.51;32.33;101648.97;5083199;28;20091;-77
2022/05/28 03:18:34;;;;;;;5.95;2.33;;;;;;;19.50;32.32;101650.84;5104986;28;20063;-77
2022/05/28 03:21:01;;;;;;;5.40;2.28;;;;;;;19.47;32.41;101651.13;5088416;28;20138;-77
2022/05/28 03:23:27;;;;;;;4.88;2.13;;;;;;;19.45;31.92;101641.22;5106061;28;20559;-77
2022/05/28 03:25:54;;;;;;;4.40;1.80;;;;;;;19.44;32.44;101644.97;5082641;28;20367;-77
2022/05/28 03:28:20;;;;;;;6.63;2.20;;;;;;;19.42;32.62;101652.53;5076403;28;20160;-77
2022/05/28 03:30:47;;;;;;;4.32;1.90;;;;;;;19.40;32.33;101644.41;5099601;28;20080;-77
2022/05/28 03:33:14;;;;;;;3.67;1.40;;;;;;;19.38;32.35;101644.53;5088137;28;20044;-77
2022/05/28 03:35:41;;;;;;;4.82;1.80;;;;;;;19.37;32.67;101644.66;5081800;28;20071;-76
2022/05/28 03:38:08;;;;;;;5.05;1.70;;;;;;;19.36;32.32;101643.78;5072178;28;20071;-77
2022/05/28 03:40:34;;;;;;;3.20;1.45;;;;;;;19.34;32.90;101650.47;5093089;28;20052;-77
2022/05/28 03:43:01;;;;;;;4.75;1.63;;;;;;;19.32;32.87;101656.13;5088481;28;20137;-77
2022/05/28 03:45:28;;;;;;;5.28;1.95;;;;;;;19.33;33.02;101649.59;5071144;28;20241;-76
2022/05/28 03:47:55;;;;;;;4.65;1.65;;;;;;;19.31;32.91;101656.25;5090485;28;20082;-77
2022/05/28 03:50:22;;;;;;;4.35;1.80;;;;;;;19.29;33.01;101645.38;5092281;28;20530;-77
2022/05/28 03:52:49;;;;;;;5.40;1.75;;;;;;;19.28;33.04;101648.25;5095199;28;20075;-77
2022/05/28 03:55:15;;;;;;;4.05;1.60;;;;;;;19.27;33.27;101654.81;5095011;28;20044;-77
2022/05/28 03:57:42;;;;;;;3.58;1.55;;;;;;;19.27;32.93;101654.81;5089014;28;20052;-76
2022/05/28 04:00:09;;;;;;;5.80;2.05;;;;;;;19.27;33.22;101660.31;5089339;28;20105;-77
2022/05/28 04:02:35;;;;;;;3.22;1.65;;;;;;;19.26;33.18;101656.69;5087979;28;20071;-76
2022/05/28 04:05:04;;;;;;;4.97;1.77;;;;;;;19.25;33.60;101657.69;5091707;28;20052;-76
2022/05/28 04:07:30;;;;;;;6.85;2.42;;;;;;;19.25;32.80;101656.81;5088618;28;20044;-77
2022/05/28 04:09:57;;;;;;;3.88;1.60;;;;;;;19.24;33.55;101655.94;5097452;28;20101;-77
2022/05/28 04:12:23;;;;;;;4.47;1.98;;;;;;;19.24;33.57;101664.19;5072707;28;20123;-76
2022/05/28 04:14:50;;;;;;;5.78;1.98;;;;;;;19.24;33.53;101661.44;5089952;28;20491;-76
2022/05/28 04:17:16;;;;;;;5.05;1.88;;;;;;;19.23;33.79;101659.69;5087988;28;20044;-76
2022/05/28 04:19:43;;;;;;;5.55;1.73;;;;;;;19.22;33.70;101666.22;5090425;28;20052;-76
2022/05/28 04:22:10;;;;;;;4.85;2.22;;;;;;;19.23;33.52;101659.69;5088815;28;20097;-77
2022/05/28 04:24:36;;;;;;;5.78;1.70;;;;;;;19.23;33.47;101667.97;5090421;28;20048;-76
2022/05/28 04:27:03;;;;;;;7.57;2.30;;;;;;;19.22;33.85;101657.94;5093609;28;20067;-77
2022/05/28 04:29:30;;;;;;;5.00;2.03;;;;;;;19.23;33.71;101656.06;5088185;28;20120;-76
2022/05/28 04:31:59;;;;;;;6.90;2.00;;;;;;;19.22;33.87;101660.72;5067842;28;20130;-76
2022/05/28 04:34:25;;;;;;;5.28;2.00;;;;;;;19.21;34.02;101661.72;5088480;28;20147;-77
2022/05/28 04:36:52;;;;;;;5.20;1.90;;;;;;;19.22;33.91;101662.59;5074744;28;20150;-77
2022/05/28 04:39:19;;;;;;;3.47;1.73;;;;;;;19.21;33.88;101664.47;5083275;28;20127;-77
2022/05/28 04:41:45;;;;;;;6.18;1.73;;;;;;;19.21;34.11;101666.34;5089330;28;20123;-76
2022/05/28 04:44:12;;;;;;;6.10;1.67;;;;;;;19.22;34.30;101676.34;5089250;28;20075;-76
2022/05/28 04:46:39;;;;;;;2.88;1.63;;;;;;;19.21;34.51;101677.34;5095958;28;20495;-77
2022/05/28 04:49:05;;;;;;;4.93;1.65;;;;;;;19.21;34.23;101677.34;5077104;28;20134;-77
2022/05/28 04:51:32;;;;;;;4.72;2.00;;;;;;;19.22;34.40;101676.34;5094216;28;20071;-76
2022/05/28 04:53:59;;;;;;;6.13;1.80;;;;;;;19.21;34.35;101677.34;5093748;28;20468;-76
2022/05/28 04:56:26;;;;;;;5.00;1.63;;;;;;;19.20;34.57;101682.00;5092981;28;20045;-76
2022/05/28 04:58:53;;;;;;;5.05;1.67;;;;;;;19.21;34.47;101682.88;5076473;28;20075;-77
2022/05/28 05:01:22;;;;;;;4.47;1.80;;;;;;;19.21;34.50;101683.75;5073026;28;20040;-77
2022/05/28 05:03:49;;;;;;;4.43;1.90;;;;;;;19.21;35.12;101675.47;5090038;28;20520;-77
2022/05/28 05:06:16;;;;;;;5.15;1.75;;;;;;;19.23;34.48;101687.22;5090436;28;20075;-79
2022/05/28 05:08:44;;;;;;;4.65;1.80;;;;;;;19.27;35.34;101680.41;5073820;28;20060;-78
2022/05/28 05:11:12;;;;;;;5.60;2.03;;;;;;;19.32;35.06;101682.78;5089132;28;20039;-78
2022/05/28 05:13:39;;;;;;;4.90;1.80;;;;;;;19.37;35.33;101692.34;5088504;28;20858;-77
2022/05/28 05:16:11;;;;;;;7.40;2.15;;;;;;;19.45;35.54;101686.16;5089788;28;20082;-77
2022/05/28 05:18:38;;;;;;;6.53;1.90;;;;;;;19.45;34.92;101690.78;5085774;28;20570;-78
2022/05/28 05:21:05;;;;;;;4.18;1.63;;;;;;;19.51;35.42;101688.41;5089249;28;20113;-77
2022/05/28 05:23:32;;;;;;;4.90;1.77;;;;;;;19.56;35.00;101690.72;5091556;28;20126;-77
2022/05/28 05:25:59;;;;;;;5.35;1.83;;;;;;;19.61;35.60;101694.78;5093116;28;20141;-77
2022/05/28 05:28:25;;;;;;;6.05;1.90;;;;;;;19.68;35.51;101689.63;5094031;28;20098;-77
2022/05/28 05:30:52;;;;;;;5.75;1.77;;;;;;;19.75;35.48;101686.16;5096127;28;20127;-77
2022/05/28 05:33:18;;;;;;;5.18;1.98;;;;;;;19.86;35.62;101689.78;5099336;28;20071;-76
2022/05/28 05:35:45;;;;;;;5.13;1.60;;;;;;;19.94;35.91;101692.69;5076095;28;20498;-77
2022/05/28 05:38:12;;;;;;;4.30;2.03;;;;;;;20.03;35.59;101692.69;5103517;28;20071;-77
2022/05/28 05:40:38;;;;;;;5.22;1.85;;;;;;;20.15;35.87;101696.22;5094629;28;20147;-77
2022/05/28 05:43:06;;;;;;;4.63;2.08;;;;;;;20.26;35.39;101695.22;5082370;28;20115;-78
2022/05/28 05:45:33;;;;;;;5.93;1.77;;;;;;;20.37;35.46;101697.84;5097957;28;20040;-77
2022/05/28 05:48:00;;;;;;;3.50;1.50;;;;;;;20.48;35.78;101698.56;5096498;28;20449;-77
2022/05/28 05:50:26;;;;;;;6.03;2.08;;;;;;;20.59;35.19;101703.03;5075258;28;20131;-77
2022/05/28 05:52:53;;;;;;;4.57;1.80;;;;;;;20.69;35.19;101694.75;5103803;28;20040;-77
2022/05/28 05:55:20;;;;;;;6.38;2.03;;;;;;;20.81;35.37;101716.53;5100734;28;20502;-77
2022/05/28 05:57:46;;;;;;;4.63;2.10;;;;;;;20.91;35.43;101699.97;5085998;28;20059;-77
2022/05/28 06:00:13;;;;;;;4.55;1.90;;;;;;;20.99;35.34;101708.38;5069337;28;20107;-77
2022/05/28 06:02:40;;;;;;;5.80;1.85;;;;;;;21.07;34.87;101704.84;5089166;28;20561;-77
2022/05/28 06:05:07;;;;;;;4.32;1.30;;;;;;;21.15;35.00;101708.63;5087125;28;20167;-77
2022/05/28 06:07:34;;;;;;;5.93;1.65;;;;;;;21.21;34.51;101702.50;5090340;28;20044;-77
2022/05/28 06:10:00;;;;;;;4.25;1.40;;;;;;;21.27;34.23;101701.03;5087286;28;20134;-77
2022/05/28 06:12:27;;;;;;;5.28;1.42;;;;;;;21.30;33.82;101691.56;5092354;28;20097;-77
2022/05/28 06:14:53;;;;;;;4.38;1.30;;;;;;;21.32;34.07;101693.19;5087489;28;20072;-77
2022/05/28 06:17:20;;;;;;;3.17;1.38;;;;;;;21.35;33.94;101700.25;5069483;28;20098;-77
2022/05/28 06:19:51;;;;;;;3.38;1.30;;;;;;;21.36;33.55;101702.88;5080437;28;20055;-77
2022/05/28 06:22:18;;;;;;;3.70;1.08;;;;;;;21.37;33.72;101701.88;5090940;28;20076;-77
2022/05/28 06:24:45;;;;;;;2.15;1.10;;;;;;;21.39;33.48;101707.25;5085580;28;20123;-77
2022/05/28 06:27:13;;;;;;;3.80;1.25;;;;;;;21.37;33.47;101704.63;5084305;28;20047;-78
2022/05/28 06:29:40;;;;;;;3.60;1.50;;;;;;;21.38;33.11;101697.22;5072862;28;20055;-78
2022/05/28 06:32:07;;;;;;;3.33;1.17;;;;;;;21.38;33.29;101700.84;5089462;28;20072;-78
2022/05/28 06:34:34;;;;;;;4.05;1.35;;;;;;;21.38;33.48;101705.50;5089200;28;20040;-77
2022/05/28 06:37:01;;;;;;;3.35;1.30;;;;;;;21.40;33.46;101701.56;5094646;28;20139;-77
2022/05/28 06:39:28;;;;;;;4.55;1.35;;;;;;;21.44;33.52;101699.34;5104242;28;20078;-78
2022/05/28 06:41:54;;;;;;;4.72;1.30;;;;;;;21.47;33.26;101710.13;5100204;28;20139;-77
2022/05/28 06:44:21;;;;;;;4.35;1.50;;;;;;;21.51;33.51;101709.66;5059336;28;1243934;-77
2022/05/28 06:46:48;;;;;;;3.25;1.08;;;;;;;21.57;33.21;101714.59;5101222;28;20051;-77
2022/05/28 06:49:14;;;;;;;3.83;1.20;;;;;;;21.62;33.25;101712.22;5110909;28;20047;-78
2022/05/28 06:51:41;;;;;;;2.97;1.30;;;;;;;21.70;33.16;101714.22;5095786;28;20516;-77
2022/05/28 06:54:08;;;;;;;2.95;1.23;;;;;;;21.78;32.92;101705.16;5098666;28;20131;-77
2022/05/28 06:56:34;;;;;;;4.07;1.63;;;;;;;21.85;32.90;101718.19;5102898;28;20043;-79
2022/05/28 06:59:01;;;;;;;2.55;1.20;;;;;;;21.93;32.56;101712.75;5104136;28;20063;-78
2022/05/28 07:01:34;;;;;;;3.85;1.20;;;;;;;21.99;32.69;101709.41;5075028;28;20051;-78
2022/05/28 07:04:01;;;;;;;3.33;1.17;;;;;;;22.09;32.75;101709.34;5098395;28;20131;-79
2022/05/28 07:06:29;;;;;;;3.08;1.20;;;;;;;22.16;32.41;101720.63;5090847;28;20036;-77
2022/05/28 07:08:55;;;;;;;3.67;1.30;;;;;;;22.21;32.14;101718.28;5090329;28;20075;-78
2022/05/28 07:11:22;;;;;;;4.50;1.30;;;;;;;22.24;31.80;101715.19;5095617;28;20134;-78
2022/05/28 07:13:49;;;;;;;3.28;1.25;;;;;;;22.30;32.06;101717.34;5081551;28;20052;-77
2022/05/28 07:16:15;;;;;;;4.63;1.15;;;;;;;22.34;32.04;101713.22;5081810;28;20502;-78
2022/05/28 07:18:42;;;;;;;3.17;0.93;;;;;;;22.40;31.62;101712.63;5104907;28;20493;-77
2022/05/28 07:21:11;;;;;;;3.83;0.90;;;;;;;22.48;31.65;101718.22;5081299;28;20581;-76
2022/05/28 07:23:38;;;;;;;4.97;1.30;;;;;;;22.53;31.81;101721.38;5092176;28;20406;-76
2022/05/28 07:26:11;;;;;;;3.75;1.20;;;;;;;22.62;30.89;101714.00;5074377;28;20047;-79
2022/05/28 07:28:40;;;;;;;3.25;0.90;;;;;;;22.65;31.56;101717.31;5090775;28;20055;-78
2022/05/28 07:31:08;;;;;;;4.10;1.20;;;;;;;22.71;31.28;101713.06;5073892;28;20070;-77
2022/05/28 07:33:38;;;;;;;3.03;1.10;;;;;;;22.76;31.24;101722.63;5074536;28;20478;-78
2022/05/28 07:36:07;;;;;;;3.42;0.82;;;;;;;22.80;31.01;101720.44;5089974;28;20497;-77
2022/05/28 07:38:34;;;;;;;3.22;1.08;;;;;;;22.85;30.95;101714.41;5085280;28;20123;-77
2022/05/28 07:41:04;;;;;;;3.17;1.13;;;;;;;22.90;30.22;101725.84;5096931;28;20084;-79
2022/05/28 07:43:31;;;;;;;4.05;1.10;;;;;;;22.90;30.17;101726.72;5092169;28;20044;-77
2022/05/28 07:45:58;;;;;;;2.90;0.95;;;;;;;22.95;30.16;101717.94;5087523;28;20047;-77
2022/05/28 07:48:25;;;;;;;3.55;1.00;;;;;;;22.97;30.09;101722.31;5081668;28;20063;-77
2022/05/28 07:50:52;;;;;;;4.75;1.15;;;;;;;23.01;30.74;101717.28;5092182;28;20047;-77
2022/05/28 07:53:18;;;;;;;2.70;0.90;;;;;;;23.07;29.95;101716.63;5096349;28;20101;-77
2022/05/28 07:55:45;;;;;;;4.43;0.80;;;;;;;23.12;30.09;101717.03;5075105;28;20553;-77
2022/05/28 07:58:14;;;;;;;2.30;0.90;;;;;;;23.21;30.12;101712.41;5087955;28;20567;-77
2022/05/28 08:00:43;;;;;;;3.03;1.10;;;;;;;23.26;29.78;101710.88;5093258;28;20056;-78
2022/05/28 08:03:11;;;;;;;2.92;0.82;;;;;;;23.31;29.62;101708.47;5087133;28;20040;-78
2022/05/28 08:05:41;;;;;;;2.17;0.75;;;;;;;23.40;29.15;101713.03;5094945;28;20097;-79
2022/05/28 08:08:09;;;;;;;1.73;0.90;;;;;;;23.44;29.39;101711.69;5085636;28;20040;-78
2022/05/28 08:10:36;;;;;;;2.13;0.90;;;;;;;23.50;28.95;101716.59;5079719;28;20470;-78
2022/05/28 08:13:06;;;;;;;3.40;0.90;;;;;;;23.58;29.09;101712.97;5073794;28;20063;-79
2022/05/28 08:15:35;;;;;;;2.38;0.90;;;;;;;23.65;28.81;101707.63;5107854;28;20048;-79
2022/05/28 08:18:02;;;;;;;1.85;0.63;;;;;;;23.70;28.48;101708.88;5073478;28;20043;-79
2022/05/28 08:23:15;;;;;;;3.13;0.88;;;;;;;23.81;28.37;101707.69;5069063;28;20071;-79
2022/05/28 08:25:41;;;;;;;2.28;0.68;;;;;;;23.87;27.39;101707.91;5086631;28;20548;-78
2022/05/28 08:28:09;;;;;;;2.17;0.93;;;;;;;23.93;27.28;101711.91;5071735;28;20094;-79
2022/05/28 08:30:38;;;;;;;1.95;0.77;;;;;;;23.96;27.27;101710.72;5096271;28;20108;-80
2022/05/28 08:33:06;;;;;;;1.95;0.70;;;;;;;23.98;27.22;101708.63;5071200;28;20036;-79
2022/05/28 08:35:34;;;;;;;2.17;0.77;;;;;;;23.99;27.15;101705.69;5091887;28;20137;-79
2022/05/28 08:38:05;;;;;;;1.80;0.60;;;;;;;24.03;26.06;101703.44;5087999;28;20093;-79
2022/05/28 08:40:37;;;;;;;2.08;0.60;;;;;;;24.03;27.20;101700.66;5077999;28;20122;-80
2022/05/28 08:43:04;;;;;;;;;;;;;;;23.75;27.72;101697.28;5085194;28;20063;-80
2022/05/28 08:45:32;;;;;;;2.25;0.77;;;;;;;24.03;27.37;101707.09;5070961;28;19967;-78
2022/05/28 08:48:00;;;;;;;2.20;0.80;;;;;;;24.09;27.06;101702.75;5093351;28;20051;-78
2022/05/28 08:50:28;;;;;;;4.30;0.95;;;;;;;24.14;27.21;101703.09;5103953;28;20130;-78
2022/05/28 08:53:06;;;;;;;2.58;0.82;;;;;;;24.20;26.38;101708.00;5087932;28;20529;-78
2022/05/28 08:55:40;;;;;;;2.00;0.70;;;;;;;24.20;26.52;101708.91;5088877;28;20056;-78
2022/05/28 08:58:14;;;;;;;3.00;0.90;;;;;;;24.23;26.39;101710.44;5069546;28;20044;-79
2022/05/28 09:00:58;;;;;;;6.30;1.33;;;;;;;24.20;26.77;101719.09;5088381;28;20048;-79
2022/05/28 09:03:32;;;;;;;5.43;1.00;;;;;;;24.20;26.50;101717.22;5088459;28;20094;-82
2022/05/28 09:06:10;;;;;;;3.78;1.05;;;;;;;24.20;26.49;101714.44;5078328;28;20052;-80
2022/05/28 09:08:44;;;;;;;3.33;0.80;;;;;;;24.17;26.05;101717.53;5081891;28;20184;-80
2022/05/28 09:11:18;;;;;;;3.05;0.80;;;;;;;24.14;26.41;101720.63;5095009;28;20080;-78
2022/05/28 09:13:48;;;;;;;3.20;0.70;;;;;;;24.09;26.15;101711.94;5097435;28;20050;-78
2022/05/28 09:16:28;;;;;;;3.25;0.80;;;;;;;24.06;26.06;101719.72;5088963;28;20438;-78
2022/05/28 09:19:01;;;;;;;1.33;0.55;;;;;;;24.01;26.53;101722.16;5087418;28;20056;-78
2022/05/28 09:21:28;;;;;;;1.50;0.70;;;;;;;23.96;26.01;101719.03;5088454;28;20075;-80
2022/05/28 09:24:01;;;;;;;1.90;1.05;;;;;;;23.95;25.31;101715.38;5096190;28;20044;-79
2022/05/28 09:26:42;;;;;;;1.58;0.70;;;;;;;23.91;25.39;101708.44;5085497;28;20552;-79
2022/05/28 09:29:27;;;;;;;1.95;0.70;;;;;;;23.87;25.21;101707.91;5088056;28;20093;-80
2022/05/28 09:32:10;;;;;;;1.95;0.80;;;;;;;23.86;25.08;101711.72;5090692;28;20089;-80
2022/05/28 09:35:22;;;;;;;2.92;1.00;;;;;;;23.79;25.40;101699.56;5086072;28;20069;-80
2022/05/28 09:37:56;;;;;;;2.17;0.73;;;;;;;23.89;26.23;101696.63;5000401;28;20101;-81
2022/05/28 09:40:31;;;;;;;2.85;0.90;;;;;;;23.94;25.97;101701.69;5001004;28;20050;-81
2022/05/28 09:42:57;;;;;;;2.38;0.60;;;;;;;23.99;25.73;101689.03;5005877;28;20057;-81
2022/05/28 09:46:02;;;;;;;2.25;0.70;;;;;;;24.09;25.66;101698.06;5012853;28;20046;-81
2022/05/28 09:48:28;;;;;;;3.08;0.75;;;;;;;24.09;25.73;101698.06;4998200;28;20548;-81
2022/05/28 09:50:55;;;;;;;2.65;0.70;;;;;;;24.15;25.65;101693.75;5003519;28;20057;-81
2022/05/28 09:56:36;;;;;;;2.15;0.70;;;;;;;24.23;25.09;101693.78;4994323;28;20097;-82
2022/05/28 09:59:23;;;;;;;3.08;0.60;;;;;;;24.25;25.30;101687.03;5005914;28;20081;-82
2022/05/28 10:01:57;;;;;;;2.47;0.80;;;;;;;24.29;25.50;101682.03;5004474;28;20046;-82
2022/05/28 10:04:31;;;;;;;1.38;0.60;;;;;;;24.35;25.25;101683.25;5005843;28;20104;-83
2022/05/28 10:07:04;;;;;;;1.60;0.88;;;;;;;24.41;25.02;101690.88;5006214;28;20042;-80
2022/05/28 10:09:33;;;;;;;2.70;1.15;;;;;;;24.44;24.70;101684.97;5070406;28;20758;-80
2022/05/28 10:12:00;;;;;;;2.63;0.93;;;;;;;24.46;24.91;101678.19;5080231;28;20048;-79
2022/05/28 10:14:30;;;;;;;1.20;0.68;;;;;;;24.52;24.96;101687.75;5091344;28;20048;-79
2022/05/28 10:17:03;;;;;;;1.70;0.73;;;;;;;24.57;24.26;101682.53;5072302;28;20059;-79
2022/05/28 10:19:43;;;;;;;3.30;1.00;;;;;;;24.61;24.13;101675.63;5081464;28;20079;-78
2022/05/28 10:22:18;;;;;;;1.52;0.60;;;;;;;24.69;24.14;101685.84;5082743;28;20056;-80
2022/05/28 10:24:52;;;;;;;4.32;1.00;;;;;;;24.74;24.63;101686.19;5081207;28;20044;-79
2022/05/28 10:27:30;;;;;;;3.47;0.80;;;;;;;24.82;23.94;101670.38;5091646;28;20640;-81
2022/05/28 10:30:02;;;;;;;2.22;0.80;;;;;;;24.86;24.50;101677.34;5072055;28;20044;-80
2022/05/28 10:32:48;;;;;;;1.33;0.87;;;;;;;24.89;24.03;101673.31;5080487;28;20379;-80
2022/05/28 10:35:19;;;;;;;2.53;0.80;;;;;;;24.92;23.65;101671.09;5081335;28;20131;-79
2022/05/28 10:37:45;;;;;;;2.08;0.77;;;;;;;24.92;24.41;101665.53;5096534;28;20060;-80
2022/05/28 10:40:16;;;;;;;2.40;1.10;;;;;;;24.93;24.31;101661.72;5079928;28;20287;-81
2022/05/28 10:42:43;;;;;;;4.50;0.93;;;;;;;24.94;24.43;101669.03;5092177;28;20102;-80
2022/05/28 10:45:14;;;;;;;4.32;1.13;;;;;;;24.96;24.01;101653.03;5092726;28;20047;-80
2022/05/28 10:48:13;;;;;;;2.03;0.80;;;;;;;24.98;23.69;101655.63;5075610;28;20165;-78
2022/05/28 10:50:47;;;;;;;2.13;0.80;;;;;;;25.01;23.19;101666.41;5073977;28;20048;-81
2022/05/28 10:53:45;;;;;;;2.13;0.85;;;;;;;24.95;23.83;101661.56;5108079;28;20047;-78
2022/05/28 10:56:18;;;;;;;3.72;0.80;;;;;;;25.01;23.94;101658.06;5092356;28;20048;-78
2022/05/28 10:59:14;;;;;;;2.38;0.88;;;;;;;25.05;22.94;101666.91;5095369;28;20040;-78
2022/05/28 11:02:05;;;;;;;3.30;0.98;;;;;;;25.06;22.59;101669.50;5091707;28;20542;-78
2022/05/28 11:04:50;;;;;;;1.85;0.70;;;;;;;25.06;22.72;101657.50;5084075;28;20458;-78
2022/05/28 11:07:36;;;;;;;1.50;0.63;;;;;;;25.03;22.67;101664.31;5091169;22;20140;-75
2022/05/28 11:10:15;;;;;;;2.10;0.80;;;;;;;24.97;22.89;101663.09;5078626;28;20135;-75
2022/05/28 11:13:13;;;;;;;2.28;0.90;;;;;;;24.91;22.48;101658.25;5067480;28;20123;-74
2022/05/28 11:15:52;;;;;;;2.78;1.13;;;;;;;24.84;22.85;101659.09;5066558;28;20115;-75
2022/05/28 11:18:38;;;;;;;1.95;0.80;;;;;;;24.75;22.80;101654.59;5058544;28;20459;-75
2022/05/28 11:21:32;;;;;;;2.88;0.85;;;;;;;24.65;23.12;101654.78;5058330;28;20064;-75
2022/05/28 11:24:07;;;;;;;2.90;0.85;;;;;;;24.65;22.72;101638.97;5042387;28;20807;-75
2022/05/28 11:26:48;;;;;;;3.53;1.08;;;;;;;24.61;23.46;101650.63;5065731;28;20076;-75
2022/05/28 11:29:33;;;;;;;1.95;0.80;;;;;;;24.58;23.23;101637.94;5066450;28;20094;-74
2022/05/28 11:32:19;;;;;;;3.05;0.95;;;;;;;24.58;23.82;101651.84;5041352;28;20051;-74
2022/05/28 11:34:55;;;;;;;2.25;1.05;;;;;;;24.60;23.47;101641.44;5060876;28;20064;-75
2022/05/28 11:37:37;;;;;;;2.80;0.90;;;;;;;24.64;22.69;101640.03;5045456;28;20051;-75
2022/05/28 11:40:18;;;;;;;4.57;1.30;;;;;;;24.65;23.00;101638.09;5058270;28;20501;-75
2022/05/28 11:42:49;;;;;;;2.00;0.80;;;;;;;24.65;23.40;101633.44;5047354;28;20059;-75
2022/05/28 11:45:22;;;;;;;2.38;0.80;;;;;;;24.72;23.11;101632.72;5055845;28;20110;-75
2022/05/28 11:47:58;;;;;;;2.15;0.80;;;;;;;24.74;23.21;101625.09;5046255;28;20060;-75